sensor_id;sensor_type;location;lat;lon;timestamp;pressure;altitude;pressure_sealevel;temperature;humidity
39891;BME280;25564;53.312;9.790;2024-01-06T00:01:14;99951.97;;;-0.57;83.99
39891;BME280;25564;53.312;9.790;2024-01-06T00:03:46;99957.91;;;-0.57;84.46
39891;BME280;25564;53.312;9.790;2024-01-06T00:06:17;99952.81;;;-0.57;84.39
39891;BME280;25564;53.312;9.790;2024-01-06T00:08:49;99957.06;;;-0.57;84.37
39891;BME280;25564;53.312;9.790;2024-01-06T00:11:25;99953.66;;;-0.56;84.30
39891;BME280;25564;53.312;9.790;2024-01-06T00:13:57;99957.06;;;-0.57;84.58
39891;BME280;25564;53.312;9.790;2024-01-06T00:16:28;99963.75;;;-0.55;84.61
39891;BME280;25564;53.312;9.790;2024-01-06T00:19:00;99953.56;;;-0.55;84.33
39891;BME280;25564;53.312;9.790;2024-01-06T00:21:32;99956.13;;;-0.55;84.57
39891;BME280;25564;53.312;9.790;2024-01-06T00:24:04;99953.66;;;-0.56;84.86
39891;BME280;25564;53.312;9.790;2024-01-06T00:26:35;99946.00;;;-0.56;84.11
39891;BME280;25564;53.312;9.790;2024-01-06T00:29:07;99968.94;;;-0.56;84.59
39891;BME280;25564;53.312;9.790;2024-01-06T00:31:38;99969.69;;;-0.54;84.00
39891;BME280;25564;53.312;9.790;2024-01-06T00:34:10;99971.41;;;-0.55;84.51
39891;BME280;25564;53.312;9.790;2024-01-06T00:36:41;99964.50;;;-0.53;84.70
39891;BME280;25564;53.312;9.790;2024-01-06T00:39:13;99973.06;;;-0.54;84.63
39891;BME280;25564;53.312;9.790;2024-01-06T00:41:44;99969.75;;;-0.56;84.70
39891;BME280;25564;53.312;9.790;2024-01-06T00:44:16;99972.44;;;-0.59;84.17
39891;BME280;25564;53.312;9.790;2024-01-06T00:46:47;99974.91;;;-0.57;84.33
39891;BME280;25564;53.312;9.790;2024-01-06T00:49:19;99971.41;;;-0.55;84.21
39891;BME280;25564;53.312;9.790;2024-01-06T00:51:50;99970.59;;;-0.55;84.67
39891;BME280;25564;53.312;9.790;2024-01-06T00:54:22;99987.59;;;-0.56;84.34
39891;BME280;25564;53.312;9.790;2024-01-06T00:56:53;99977.41;;;-0.56;84.26
39891;BME280;25564;53.312;9.790;2024-01-06T00:59:30;99977.41;;;-0.56;84.64
39891;BME280;25564;53.312;9.790;2024-01-06T01:02:01;99970.59;;;-0.55;84.78
39891;BME280;25564;53.312;9.790;2024-01-06T01:04:33;99988.47;;;-0.57;84.70
39891;BME280;25564;53.312;9.790;2024-01-06T01:07:04;99986.00;;;-0.58;84.61
39891;BME280;25564;53.312;9.790;2024-01-06T01:09:35;99997.16;;;-0.61;84.04
39891;BME280;25564;53.312;9.790;2024-01-06T01:12:07;99992.97;;;-0.62;84.72
39891;BME280;25564;53.312;9.790;2024-01-06T01:14:38;99989.50;;;-0.61;84.21
39891;BME280;25564;53.312;9.790;2024-01-06T01:17:10;99987.81;;;-0.60;84.56
39891;BME280;25564;53.312;9.790;2024-01-06T01:19:41;100002.13;;;-0.58;84.07
39891;BME280;25564;53.312;9.790;2024-01-06T01:22:13;100003.00;;;-0.59;84.14
39891;BME280;25564;53.312;9.790;2024-01-06T01:24:44;100018.28;;;-0.59;84.51
39891;BME280;25564;53.312;9.790;2024-01-06T01:27:16;100013.94;;;-0.57;83.99
39891;BME280;25564;53.312;9.790;2024-01-06T01:29:47;100034.31;;;-0.57;84.21
39891;BME280;25564;53.312;9.790;2024-01-06T01:32:21;100025.94;;;-0.59;84.43
39891;BME280;25564;53.312;9.790;2024-01-06T01:34:53;100027.44;;;-0.55;84.28
39891;BME280;25564;53.312;9.790;2024-01-06T01:37:24;100028.34;;;-0.56;84.56
39891;BME280;25564;53.312;9.790;2024-01-06T01:39:56;100032.53;;;-0.55;84.05
39891;BME280;25564;53.312;9.790;2024-01-06T01:42:27;100029.22;;;-0.57;84.73
39891;BME280;25564;53.312;9.790;2024-01-06T01:44:58;100036.94;;;-0.58;84.12
39891;BME280;25564;53.312;9.790;2024-01-06T01:47:30;100034.31;;;-0.57;84.47
39891;BME280;25564;53.312;9.790;2024-01-06T01:50:02;100030.06;;;-0.56;83.98
39891;BME280;25564;53.312;9.790;2024-01-06T01:52:35;100035.16;;;-0.56;84.70
39891;BME280;25564;53.312;9.790;2024-01-06T01:55:08;100034.28;;;-0.55;84.42
39891;BME280;25564;53.312;9.790;2024-01-06T01:57:39;100029.97;;;-0.55;84.48
39891;BME280;25564;53.312;9.790;2024-01-06T02:00:13;100032.53;;;-0.55;84.13
39891;BME280;25564;53.312;9.790;2024-01-06T02:02:44;100039.28;;;-0.54;84.07
39891;BME280;25564;53.312;9.790;2024-01-06T02:05:16;100036.88;;;-0.57;84.15
39891;BME280;25564;53.312;9.790;2024-01-06T02:07:47;100037.78;;;-0.58;84.56
39891;BME280;25564;53.312;9.790;2024-01-06T02:10:22;100036.00;;;-0.56;84.79
39891;BME280;25564;53.312;9.790;2024-01-06T02:12:53;100052.16;;;-0.57;84.15
39891;BME280;25564;53.312;9.790;2024-01-06T02:15:25;100051.41;;;-0.59;84.46
39891;BME280;25564;53.312;9.790;2024-01-06T02:17:57;100050.50;;;-0.58;84.75
39891;BME280;25564;53.312;9.790;2024-01-06T02:20:30;100048.78;;;-0.57;84.44
39891;BME280;25564;53.312;9.790;2024-01-06T02:23:02;100054.69;;;-0.57;84.56
39891;BME280;25564;53.312;9.790;2024-01-06T02:25:33;100050.44;;;-0.56;84.85
39891;BME280;25564;53.312;9.790;2024-01-06T02:28:06;100053.81;;;-0.56;84.71
39891;BME280;25564;53.312;9.790;2024-01-06T02:30:38;100057.31;;;-0.58;84.34
39891;BME280;25564;53.312;9.790;2024-01-06T02:33:09;100054.69;;;-0.57;84.48
39891;BME280;25564;53.312;9.790;2024-01-06T02:35:41;100059.88;;;-0.58;84.65
39891;BME280;25564;53.312;9.790;2024-01-06T02:38:12;100057.25;;;-0.57;84.34
39891;BME280;25564;53.312;9.790;2024-01-06T02:40:44;100071.66;;;-0.56;84.88
39891;BME280;25564;53.312;9.790;2024-01-06T02:43:15;100071.66;;;-0.56;84.51
39891;BME280;25564;53.312;9.790;2024-01-06T02:45:46;100075.91;;;-0.56;84.47
39891;BME280;25564;53.312;9.790;2024-01-06T02:48:18;100081.00;;;-0.56;84.73
39891;BME280;25564;53.312;9.790;2024-01-06T02:50:50;100075.06;;;-0.57;84.29
39891;BME280;25564;53.312;9.790;2024-01-06T02:53:21;100077.63;;;-0.57;84.46
39891;BME280;25564;53.312;9.790;2024-01-06T02:55:52;100084.38;;;-0.56;84.39
39891;BME280;25564;53.312;9.790;2024-01-06T02:58:24;100076.88;;;-0.59;84.83
39891;BME280;25564;53.312;9.790;2024-01-06T03:00:55;100081.97;;;-0.59;84.57
39891;BME280;25564;53.312;9.790;2024-01-06T03:03:27;100094.69;;;-0.59;85.02
39891;BME280;25564;53.312;9.790;2024-01-06T03:05:58;100092.06;;;-0.57;84.39
39891;BME280;25564;53.312;9.790;2024-01-06T03:08:31;100084.50;;;-0.59;84.67
39891;BME280;25564;53.312;9.790;2024-01-06T03:11:02;100083.75;;;-0.61;84.29
39891;BME280;25564;53.312;9.790;2024-01-06T03:13:35;100088.84;;;-0.61;84.36
39891;BME280;25564;53.312;9.790;2024-01-06T03:16:07;100086.38;;;-0.62;84.65
39891;BME280;25564;53.312;9.790;2024-01-06T03:18:38;100092.16;;;-0.59;84.61
39891;BME280;25564;53.312;9.790;2024-01-06T03:21:17;100089.69;;;-0.60;84.82
39891;BME280;25564;53.312;9.790;2024-01-06T03:23:49;100098.19;;;-0.61;84.83
39891;BME280;25564;53.312;9.790;2024-01-06T03:26:21;100100.81;;;-0.63;84.33
39891;BME280;25564;53.312;9.790;2024-01-06T03:28:54;100103.38;;;-0.63;84.55
39891;BME280;25564;53.312;9.790;2024-01-06T03:31:26;100100.06;;;-0.65;84.87
39891;BME280;25564;53.312;9.790;2024-01-06T03:33:58;100117.00;;;-0.64;84.59
39891;BME280;25564;53.312;9.790;2024-01-06T03:36:30;100106.88;;;-0.65;84.87
39891;BME280;25564;53.312;9.790;2024-01-06T03:39:01;100114.59;;;-0.67;84.65
39891;BME280;25564;53.312;9.790;2024-01-06T03:41:32;100126.44;;;-0.66;84.23
39891;BME280;25564;53.312;9.790;2024-01-06T03:44:04;100129.88;;;-0.67;84.40
39891;BME280;25564;53.312;9.790;2024-01-06T03:46:36;100139.22;;;-0.67;84.82
39891;BME280;25564;53.312;9.790;2024-01-06T03:49:07;100136.75;;;-0.69;84.81
39891;BME280;25564;53.312;9.790;2024-01-06T03:51:39;100137.59;;;-0.68;85.13
39891;BME280;25564;53.312;9.790;2024-01-06T03:54:10;100133.38;;;-0.69;85.32
39891;BME280;25564;53.312;9.790;2024-01-06T03:56:43;100141.97;;;-0.72;84.46
39891;BME280;25564;53.312;9.790;2024-01-06T03:59:14;100148.84;;;-0.74;84.41
39891;BME280;25564;53.312;9.790;2024-01-06T04:01:45;100145.50;;;-0.74;84.70
39891;BME280;25564;53.312;9.790;2024-01-06T04:04:17;100143.91;;;-0.77;84.89
39891;BME280;25564;53.312;9.790;2024-01-06T04:06:48;100147.28;;;-0.76;84.46
39891;BME280;25564;53.312;9.790;2024-01-06T04:09:20;100149.00;;;-0.77;84.78
39891;BME280;25564;53.312;9.790;2024-01-06T04:11:52;100149.09;;;-0.80;84.24
39891;BME280;25564;53.312;9.790;2024-01-06T04:14:23;100161.78;;;-0.78;84.34
39891;BME280;25564;53.312;9.790;2024-01-06T04:16:54;100154.19;;;-0.80;84.79
39891;BME280;25564;53.312;9.790;2024-01-06T04:19:28;100163.59;;;-0.80;84.93
39891;BME280;25564;53.312;9.790;2024-01-06T04:21:59;100156.81;;;-0.81;84.27
39891;BME280;25564;53.312;9.790;2024-01-06T04:24:31;100164.38;;;-0.80;84.06
39891;BME280;25564;53.312;9.790;2024-01-06T04:27:04;100167.69;;;-0.78;84.90
39891;BME280;25564;53.312;9.790;2024-01-06T04:29:35;100170.31;;;-0.79;84.34
39891;BME280;25564;53.312;9.790;2024-01-06T04:32:07;100174.56;;;-0.80;84.47
39891;BME280;25564;53.312;9.790;2024-01-06T04:34:39;100179.81;;;-0.83;84.48
39891;BME280;25564;53.312;9.790;2024-01-06T04:37:10;100176.34;;;-0.82;84.22
39891;BME280;25564;53.312;9.790;2024-01-06T04:39:42;100185.75;;;-0.82;84.28
39891;BME280;25564;53.312;9.790;2024-01-06T04:42:13;100195.84;;;-0.81;84.34
39891;BME280;25564;53.312;9.790;2024-01-06T04:44:44;100193.41;;;-0.84;84.35
39891;BME280;25564;53.312;9.790;2024-01-06T04:47:16;100186.69;;;-0.85;84.45
39891;BME280;25564;53.312;9.790;2024-01-06T04:49:48;100188.47;;;-0.87;84.91
39891;BME280;25564;53.312;9.790;2024-01-06T04:52:19;100196.16;;;-0.89;84.36
39891;BME280;25564;53.312;9.790;2024-01-06T04:54:51;100202.06;;;-0.88;84.62
39891;BME280;25564;53.312;9.790;2024-01-06T04:57:23;100201.25;;;-0.89;84.60
39891;BME280;25564;53.312;9.790;2024-01-06T04:59:54;100208.06;;;-0.89;84.56
39891;BME280;25564;53.312;9.790;2024-01-06T05:02:26;100211.50;;;-0.90;84.68
39891;BME280;25564;53.312;9.790;2024-01-06T05:04:57;100219.13;;;-0.90;84.42
39891;BME280;25564;53.312;9.790;2024-01-06T05:07:29;100212.41;;;-0.91;84.22
39891;BME280;25564;53.312;9.790;2024-01-06T05:10:00;100220.03;;;-0.91;83.95
39891;BME280;25564;53.312;9.790;2024-01-06T05:12:32;100216.72;;;-0.93;83.93
39891;BME280;25564;53.312;9.790;2024-01-06T05:15:03;100214.03;;;-0.90;84.02
39891;BME280;25564;53.312;9.790;2024-01-06T05:17:35;100222.69;;;-0.94;83.83
39891;BME280;25564;53.312;9.790;2024-01-06T05:20:07;100225.13;;;-0.91;84.54
39891;BME280;25564;53.312;9.790;2024-01-06T05:22:39;100227.78;;;-0.94;84.49
39891;BME280;25564;53.312;9.790;2024-01-06T05:25:10;100234.56;;;-0.93;84.05
39891;BME280;25564;53.312;9.790;2024-01-06T05:27:41;100237.13;;;-0.95;84.46
39891;BME280;25564;53.312;9.790;2024-01-06T05:30:13;100232.88;;;-0.94;84.41
39891;BME280;25564;53.312;9.790;2024-01-06T05:32:44;100239.69;;;-0.95;84.65
39891;BME280;25564;53.312;9.790;2024-01-06T05:35:16;100249.88;;;-0.95;84.33
39891;BME280;25564;53.312;9.790;2024-01-06T05:37:48;100244.00;;;-0.97;84.38
39891;BME280;25564;53.312;9.790;2024-01-06T05:40:19;100251.72;;;-0.98;84.66
39891;BME280;25564;53.312;9.790;2024-01-06T05:42:50;100265.22;;;-0.96;84.12
39891;BME280;25564;53.312;9.790;2024-01-06T05:45:23;100264.38;;;-0.97;84.68
39891;BME280;25564;53.312;9.790;2024-01-06T05:47:59;100273.72;;;-0.97;84.15
39891;BME280;25564;53.312;9.790;2024-01-06T05:50:30;100270.31;;;-0.96;84.02
39891;BME280;25564;53.312;9.790;2024-01-06T05:53:02;100281.31;;;-0.96;83.80
39891;BME280;25564;53.312;9.790;2024-01-06T05:55:33;100280.59;;;-0.99;83.94
39891;BME280;25564;53.312;9.790;2024-01-06T05:58:05;100292.44;;;-0.98;84.47
39891;BME280;25564;53.312;9.790;2024-01-06T06:00:36;100297.47;;;-0.97;83.91
39891;BME280;25564;53.312;9.790;2024-01-06T06:03:08;100298.41;;;-0.99;83.96
39891;BME280;25564;53.312;9.790;2024-01-06T06:05:39;100306.94;;;-1.00;83.90
39891;BME280;25564;53.312;9.790;2024-01-06T06:08:11;100310.34;;;-1.00;84.17
39891;BME280;25564;53.312;9.790;2024-01-06T06:10:42;100308.66;;;-1.01;84.00
39891;BME280;25564;53.312;9.790;2024-01-06T06:13:30;100323.94;;;-1.01;84.43
39891;BME280;25564;53.312;9.790;2024-01-06T06:16:02;100321.38;;;-1.01;84.28
39891;BME280;25564;53.312;9.790;2024-01-06T06:18:34;100325.66;;;-1.01;84.43
39891;BME280;25564;53.312;9.790;2024-01-06T06:21:07;100324.88;;;-1.03;84.14
39891;BME280;25564;53.312;9.790;2024-01-06T06:23:39;100338.50;;;-1.04;84.57
39891;BME280;25564;53.312;9.790;2024-01-06T06:26:11;100335.19;;;-1.06;84.41
39891;BME280;25564;53.312;9.790;2024-01-06T06:28:43;100343.84;;;-1.10;84.56
39891;BME280;25564;53.312;9.790;2024-01-06T06:31:15;100342.06;;;-1.08;83.96
39891;BME280;25564;53.312;9.790;2024-01-06T06:33:46;100343.00;;;-1.11;84.32
39891;BME280;25564;53.312;9.790;2024-01-06T06:36:18;100353.94;;;-1.09;83.77
39891;BME280;25564;53.312;9.790;2024-01-06T06:38:50;100355.72;;;-1.11;84.30
39891;BME280;25564;53.312;9.790;2024-01-06T06:41:21;100364.06;;;-1.07;84.07
39891;BME280;25564;53.312;9.790;2024-01-06T06:43:52;100367.50;;;-1.08;84.09
39891;BME280;25564;53.312;9.790;2024-01-06T06:46:24;100364.19;;;-1.10;84.10
39891;BME280;25564;53.312;9.790;2024-01-06T06:48:55;100369.28;;;-1.10;84.37
39891;BME280;25564;53.312;9.790;2024-01-06T06:51:27;100368.44;;;-1.11;84.19
39891;BME280;25564;53.312;9.790;2024-01-06T06:53:59;100381.94;;;-1.09;84.02
39891;BME280;25564;53.312;9.790;2024-01-06T06:56:31;100374.41;;;-1.12;84.53
39891;BME280;25564;53.312;9.790;2024-01-06T06:59:02;100391.44;;;-1.12;83.78
39891;BME280;25564;53.312;9.790;2024-01-06T07:01:34;100389.75;;;-1.13;83.81
39891;BME280;25564;53.312;9.790;2024-01-06T07:04:06;100390.69;;;-1.16;83.79
39891;BME280;25564;53.312;9.790;2024-01-06T07:06:38;100393.19;;;-1.14;84.11
39891;BME280;25564;53.312;9.790;2024-01-06T07:09:09;100400.88;;;-1.16;84.26
39891;BME280;25564;53.312;9.790;2024-01-06T07:11:40;100400.06;;;-1.16;84.52
39891;BME280;25564;53.312;9.790;2024-01-06T07:14:12;100405.03;;;-1.13;83.97
39891;BME280;25564;53.312;9.790;2024-01-06T07:16:44;100416.88;;;-1.12;83.95
39891;BME280;25564;53.312;9.790;2024-01-06T07:19:16;100413.50;;;-1.13;83.96
39891;BME280;25564;53.312;9.790;2024-01-06T07:21:48;100416.97;;;-1.15;84.42
39891;BME280;25564;53.312;9.790;2024-01-06T07:24:19;100423.75;;;-1.14;83.97
39891;BME280;25564;53.312;9.790;2024-01-06T07:26:50;100429.84;;;-1.18;84.24
39891;BME280;25564;53.312;9.790;2024-01-06T07:29:22;100440.03;;;-1.20;84.26
39891;BME280;25564;53.312;9.790;2024-01-06T07:31:53;100440.88;;;-1.19;84.18
39891;BME280;25564;53.312;9.790;2024-01-06T07:34:25;100445.09;;;-1.18;83.73
39891;BME280;25564;53.312;9.790;2024-01-06T07:36:56;100434.91;;;-1.18;83.56
39891;BME280;25564;53.312;9.790;2024-01-06T07:39:28;100443.38;;;-1.18;84.29
39891;BME280;25564;53.312;9.790;2024-01-06T07:42:01;100443.38;;;-1.18;83.75
39891;BME280;25564;53.312;9.790;2024-01-06T07:44:34;100445.97;;;-1.19;84.27
39891;BME280;25564;53.312;9.790;2024-01-06T07:47:05;100452.84;;;-1.21;84.04
39891;BME280;25564;53.312;9.790;2024-01-06T07:49:36;100451.16;;;-1.22;84.04
39891;BME280;25564;53.312;9.790;2024-01-06T07:52:08;100451.16;;;-1.22;84.22
39891;BME280;25564;53.312;9.790;2024-01-06T07:54:40;100453.66;;;-1.21;83.57
39891;BME280;25564;53.312;9.790;2024-01-06T07:57:11;100462.91;;;-1.18;84.17
39891;BME280;25564;53.312;9.790;2024-01-06T07:59:43;100474.88;;;-1.20;83.75
39891;BME280;25564;53.312;9.790;2024-01-06T08:02:14;100476.50;;;-1.19;83.91
39891;BME280;25564;53.312;9.790;2024-01-06T08:04:46;100477.34;;;-1.19;84.38
39891;BME280;25564;53.312;9.790;2024-01-06T08:07:17;100486.75;;;-1.21;84.04
39891;BME280;25564;53.312;9.790;2024-01-06T08:09:50;100496.09;;;-1.21;83.75
39891;BME280;25564;53.312;9.790;2024-01-06T08:12:21;100487.63;;;-1.22;84.01
39891;BME280;25564;53.312;9.790;2024-01-06T08:14:53;100491.00;;;-1.21;83.80
39891;BME280;25564;53.312;9.790;2024-01-06T08:17:24;100495.31;;;-1.23;83.71
39891;BME280;25564;53.312;9.790;2024-01-06T08:19:55;100510.53;;;-1.22;83.54
39891;BME280;25564;53.312;9.790;2024-01-06T08:22:27;100513.06;;;-1.22;83.69
39891;BME280;25564;53.312;9.790;2024-01-06T08:24:58;100515.69;;;-1.23;84.05
39891;BME280;25564;53.312;9.790;2024-01-06T08:27:29;100515.69;;;-1.23;84.07
39891;BME280;25564;53.312;9.790;2024-01-06T08:30:01;100526.63;;;-1.21;83.82
39891;BME280;25564;53.312;9.790;2024-01-06T08:32:33;100529.13;;;-1.20;84.01
39891;BME280;25564;53.312;9.790;2024-01-06T08:35:05;100533.44;;;-1.22;84.10
39891;BME280;25564;53.312;9.790;2024-01-06T08:37:36;100544.44;;;-1.21;83.69
39891;BME280;25564;53.312;9.790;2024-01-06T08:40:09;100542.75;;;-1.21;83.54
39891;BME280;25564;53.312;9.790;2024-01-06T08:42:40;100546.13;;;-1.20;83.85
39891;BME280;25564;53.312;9.790;2024-01-06T08:45:11;100542.78;;;-1.22;83.45
39891;BME280;25564;53.312;9.790;2024-01-06T08:47:43;100552.06;;;-1.21;83.69
39891;BME280;25564;53.312;9.790;2024-01-06T08:50:14;100553.75;;;-1.20;83.41
39891;BME280;25564;53.312;9.790;2024-01-06T08:52:46;100561.41;;;-1.22;83.64
39891;BME280;25564;53.312;9.790;2024-01-06T08:55:17;100567.41;;;-1.23;84.07
39891;BME280;25564;53.312;9.790;2024-01-06T08:57:48;100565.78;;;-1.25;83.74
39891;BME280;25564;53.312;9.790;2024-01-06T09:00:20;100568.34;;;-1.25;83.51
39891;BME280;25564;53.312;9.790;2024-01-06T09:02:51;100585.31;;;-1.26;83.32
39891;BME280;25564;53.312;9.790;2024-01-06T09:05:23;100588.69;;;-1.25;83.97
39891;BME280;25564;53.312;9.790;2024-01-06T09:07:55;100593.84;;;-1.27;83.91
39891;BME280;25564;53.312;9.790;2024-01-06T09:10:27;100586.22;;;-1.27;83.86
39891;BME280;25564;53.312;9.790;2024-01-06T09:13:00;100594.66;;;-1.26;83.50
39891;BME280;25564;53.312;9.790;2024-01-06T09:15:33;100597.97;;;-1.24;83.88
39891;BME280;25564;53.312;9.790;2024-01-06T09:18:04;100619.13;;;-1.22;84.02
39891;BME280;25564;53.312;9.790;2024-01-06T09:20:36;100619.03;;;-1.19;83.29
39891;BME280;25564;53.312;9.790;2024-01-06T09:23:08;100618.25;;;-1.21;83.72
39891;BME280;25564;53.312;9.790;2024-01-06T09:25:39;100630.88;;;-1.18;83.52
39891;BME280;25564;53.312;9.790;2024-01-06T09:28:13;100630.09;;;-1.20;84.03
39891;BME280;25564;53.312;9.790;2024-01-06T09:30:45;100630.88;;;-1.18;83.73
39891;BME280;25564;53.312;9.790;2024-01-06T09:33:16;100637.63;;;-1.17;83.42
39891;BME280;25564;53.312;9.790;2024-01-06T09:35:49;100637.75;;;-1.20;83.93
39891;BME280;25564;53.312;9.790;2024-01-06T09:38:22;100641.84;;;-1.16;83.67
39891;BME280;25564;53.312;9.790;2024-01-06T09:40:56;100642.56;;;-1.13;84.00
39891;BME280;25564;53.312;9.790;2024-01-06T09:43:29;100647.72;;;-1.14;83.44
39891;BME280;25564;53.312;9.790;2024-01-06T09:46:06;100645.97;;;-1.14;83.63
39891;BME280;25564;53.312;9.790;2024-01-06T09:48:40;100644.19;;;-1.12;83.62
39891;BME280;25564;53.312;9.790;2024-01-06T09:51:13;100656.84;;;-1.09;84.07
39891;BME280;25564;53.312;9.790;2024-01-06T09:53:59;100661.00;;;-1.06;83.65
39891;BME280;25564;53.312;9.790;2024-01-06T09:56:31;100661.00;;;-1.06;83.63
39891;BME280;25564;53.312;9.790;2024-01-06T09:59:03;100656.78;;;-1.07;83.50
39891;BME280;25564;53.312;9.790;2024-01-06T10:01:35;100661.84;;;-1.06;83.43
39891;BME280;25564;53.312;9.790;2024-01-06T10:04:07;100677.97;;;-1.07;83.74
39891;BME280;25564;53.312;9.790;2024-01-06T10:06:39;100677.28;;;-1.12;83.63
39891;BME280;25564;53.312;9.790;2024-01-06T10:09:12;100685.03;;;-1.15;83.66
39891;BME280;25564;53.312;9.790;2024-01-06T10:11:43;100679.97;;;-1.15;83.35
39891;BME280;25564;53.312;9.790;2024-01-06T10:14:15;100685.97;;;-1.17;84.10
39891;BME280;25564;53.312;9.790;2024-01-06T10:16:46;100691.06;;;-1.17;83.59
39891;BME280;25564;53.312;9.790;2024-01-06T10:19:20;100699.41;;;-1.14;83.63
39891;BME280;25564;53.312;9.790;2024-01-06T10:21:52;100683.38;;;-1.16;83.48
39891;BME280;25564;53.312;9.790;2024-01-06T10:24:24;100696.94;;;-1.15;83.32
39891;BME280;25564;53.312;9.790;2024-01-06T10:26:55;100702.91;;;-1.16;83.42
39891;BME280;25564;53.312;9.790;2024-01-06T10:29:26;100703.69;;;-1.14;83.76
39891;BME280;25564;53.312;9.790;2024-01-06T10:31:59;100695.31;;;-1.18;84.18
39891;BME280;25564;53.312;9.790;2024-01-06T10:34:30;100708.88;;;-1.17;83.94
39891;BME280;25564;53.312;9.790;2024-01-06T10:37:03;100715.53;;;-1.13;83.69
39891;BME280;25564;53.312;9.790;2024-01-06T10:39:37;100725.81;;;-1.16;83.59
39891;BME280;25564;53.312;9.790;2024-01-06T10:42:10;100726.69;;;-1.17;84.25
39891;BME280;25564;53.312;9.790;2024-01-06T10:44:44;100710.56;;;-1.16;83.79
39891;BME280;25564;53.312;9.790;2024-01-06T10:47:18;100723.16;;;-1.13;84.38
39891;BME280;25564;53.312;9.790;2024-01-06T10:49:50;100723.94;;;-1.11;84.11
39891;BME280;25564;53.312;9.790;2024-01-06T10:52:27;100711.16;;;-1.10;83.46
39891;BME280;25564;53.312;9.790;2024-01-06T10:55:01;100723.84;;;-1.08;83.60
39891;BME280;25564;53.312;9.790;2024-01-06T10:57:33;100725.50;;;-1.07;83.58
39891;BME280;25564;53.312;9.790;2024-01-06T11:00:05;100728.16;;;-1.10;84.02
39891;BME280;25564;53.312;9.790;2024-01-06T11:02:38;100720.63;;;-1.13;83.97
39891;BME280;25564;53.312;9.790;2024-01-06T11:05:13;100722.38;;;-1.15;83.38
39891;BME280;25564;53.312;9.790;2024-01-06T11:07:45;100730.78;;;-1.13;83.35
39891;BME280;25564;53.312;9.790;2024-01-06T11:10:19;100720.72;;;-1.16;83.82
39891;BME280;25564;53.312;9.790;2024-01-06T11:13:21;100726.69;;;-1.17;84.12
39891;BME280;25564;53.312;9.790;2024-01-06T11:15:53;100719.25;;;-1.23;83.64
39891;BME280;25564;53.312;9.790;2024-01-06T11:18:38;100723.56;;;-1.25;83.34
39891;BME280;25564;53.312;9.790;2024-01-06T11:23:45;100732.84;;;-1.24;83.91
39891;BME280;25564;53.312;9.790;2024-01-06T11:26:17;100737.00;;;-1.22;83.94
39891;BME280;25564;53.312;9.790;2024-01-06T11:28:50;100729.34;;;-1.20;83.95
39891;BME280;25564;53.312;9.790;2024-01-06T11:31:22;100736.03;;;-1.18;83.51
39891;BME280;25564;53.312;9.790;2024-01-06T11:33:54;100729.16;;;-1.14;83.41
39891;BME280;25564;53.312;9.790;2024-01-06T11:36:25;100737.56;;;-1.12;83.74
39891;BME280;25564;53.312;9.790;2024-01-06T11:38:59;100740.00;;;-1.09;83.56
39891;BME280;25564;53.312;9.790;2024-01-06T11:41:51;100734.75;;;-1.05;84.00
39891;BME280;25564;53.312;9.790;2024-01-06T11:44:23;100728.75;;;-1.02;83.48
39891;BME280;25564;53.312;9.790;2024-01-06T11:46:56;100726.13;;;-1.01;83.41
39891;BME280;25564;53.312;9.790;2024-01-06T11:49:29;100727.69;;;-0.95;84.05
39891;BME280;25564;53.312;9.790;2024-01-06T11:52:00;100736.88;;;-0.91;83.62
39891;BME280;25564;53.312;9.790;2024-01-06T11:54:32;100729.25;;;-0.93;83.33
39891;BME280;25564;53.312;9.790;2024-01-06T11:57:04;100731.72;;;-0.90;83.80
39891;BME280;25564;53.312;9.790;2024-01-06T11:59:35;100738.56;;;-0.92;83.31
39891;BME280;25564;53.312;9.790;2024-01-06T12:02:11;100738.63;;;-0.93;83.09
39891;BME280;25564;53.312;9.790;2024-01-06T12:04:43;100726.88;;;-0.97;83.02
39891;BME280;25564;53.312;9.790;2024-01-06T12:07:21;100730.31;;;-0.98;83.25
39891;BME280;25564;53.312;9.790;2024-01-06T12:10:03;100727.06;;;-1.03;83.51
39891;BME280;25564;53.312;9.790;2024-01-06T12:12:34;100744.09;;;-1.05;83.11
39891;BME280;25564;53.312;9.790;2024-01-06T12:15:06;100732.34;;;-1.09;83.75
39891;BME280;25564;53.312;9.790;2024-01-06T12:17:41;100749.31;;;-1.08;83.86
39891;BME280;25564;53.312;9.790;2024-01-06T12:20:13;100743.28;;;-1.06;83.91
39891;BME280;25564;53.312;9.790;2024-01-06T12:22:45;100749.25;;;-1.07;83.72
39891;BME280;25564;53.312;9.790;2024-01-06T12:25:16;100756.06;;;-1.07;82.99
39891;BME280;25564;53.312;9.790;2024-01-06T12:27:49;100747.63;;;-1.09;82.97
39891;BME280;25564;53.312;9.790;2024-01-06T12:30:22;100750.25;;;-1.11;83.71
39891;BME280;25564;53.312;9.790;2024-01-06T12:32:54;100749.31;;;-1.08;83.24
39891;BME280;25564;53.312;9.790;2024-01-06T12:35:26;100747.75;;;-1.12;83.27
39891;BME280;25564;53.312;9.790;2024-01-06T12:37:57;100753.75;;;-1.15;83.45
39891;BME280;25564;53.312;9.790;2024-01-06T12:40:29;100750.44;;;-1.17;83.31
39891;BME280;25564;53.312;9.790;2024-01-06T12:43:00;100755.59;;;-1.18;83.84
39891;BME280;25564;53.312;9.790;2024-01-06T12:45:31;100759.88;;;-1.20;83.51
39891;BME280;25564;53.312;9.790;2024-01-06T12:48:03;100759.06;;;-1.21;83.71
39891;BME280;25564;53.312;9.790;2024-01-06T12:50:35;100760.75;;;-1.21;83.08
39891;BME280;25564;53.312;9.790;2024-01-06T12:53:06;100773.47;;;-1.21;82.97
39891;BME280;25564;53.312;9.790;2024-01-06T12:55:38;100761.53;;;-1.19;83.73
39891;BME280;25564;53.312;9.790;2024-01-06T12:58:10;100759.88;;;-1.20;83.25
39891;BME280;25564;53.312;9.790;2024-01-06T13:00:42;100766.53;;;-1.16;83.77
39891;BME280;25564;53.312;9.790;2024-01-06T13:03:14;100774.97;;;-1.14;83.90
39891;BME280;25564;53.312;9.790;2024-01-06T13:05:46;100781.69;;;-1.13;83.47
39891;BME280;25564;53.312;9.790;2024-01-06T13:08:17;100779.28;;;-1.16;83.09
39891;BME280;25564;53.312;9.790;2024-01-06T13:10:49;100781.81;;;-1.16;83.82
39891;BME280;25564;53.312;9.790;2024-01-06T13:13:20;100787.69;;;-1.14;83.16
39891;BME280;25564;53.312;9.790;2024-01-06T13:15:51;100789.34;;;-1.13;83.18
39891;BME280;25564;53.312;9.790;2024-01-06T13:18:23;100801.16;;;-1.11;83.91